Time;durP1;ratioP1;P1;durP2;ratioP2;P2;SDS_P1;SDS_P2;PMS_P1;PMS_P2;Temp;Humidity;BMP_temperature;BMP_pressure;BME280_temperature;BME280_humidity;BME280_pressure;Samples;Min_cycle;Max_cycle;Signal;HPM_P1;HPM_P2
2022/04/02 00:02:04;;;;;;;9.35;5.85;;;;;;;20.04;50.67;97089.20;1878813;76;25542;-88
2022/04/02 00:04:30;;;;;;;10.23;6.12;;;;;;;20.06;50.67;97087.41;1878600;76;25815;-88
2022/04/02 00:06:57;;;;;;;9.35;6.33;;;;;;;20.06;50.67;97096.54;1878743;76;27973;-88
2022/04/02 00:09:23;;;;;;;10.05;6.30;;;;;;;20.07;50.66;97093.17;1878444;76;25616;-89
2022/04/02 00:11:49;;;;;;;9.73;6.53;;;;;;;20.08;50.67;97096.13;1878656;76;25732;-87
2022/04/02 00:14:17;;;;;;;9.08;5.83;;;;;;;20.08;50.68;97097.52;1878396;76;25672;-88
2022/04/02 00:16:43;;;;;;;9.43;5.35;;;;;;;20.08;50.67;97094.73;1878235;76;25649;-88
2022/04/02 00:19:10;;;;;;;9.15;5.97;;;;;;;20.09;50.67;97100.47;1878365;76;27570;-88
2022/04/02 00:21:38;;;;;;;8.00;5.65;;;;;;;20.10;50.68;97100.68;1878653;76;25423;-88
2022/04/02 00:24:06;;;;;;;8.08;5.42;;;;;;;20.12;50.68;97097.48;1878206;76;25598;-88
2022/04/02 00:26:33;;;;;;;9.85;5.60;;;;;;;20.13;50.65;97101.23;1878209;76;25638;-88
2022/04/02 00:29:00;;;;;;;10.35;6.12;;;;;;;20.13;50.66;97101.23;1878230;76;25561;-88
2022/04/02 00:31:29;;;;;;;9.50;5.78;;;;;;;20.13;50.67;97098.45;1878528;76;27363;-88
2022/04/02 00:33:53;;;;;;;8.38;5.33;;;;;;;20.15;50.66;97098.04;1877903;76;25593;-87
2022/04/02 00:36:22;;;;;;;8.03;5.90;;;;;;;20.15;50.66;97099.43;1878995;76;25652;-87
2022/04/02 00:38:49;;;;;;;8.73;5.45;;;;;;;20.15;50.66;97101.59;1878312;76;26351;-88
2022/04/02 00:41:16;;;;;;;8.38;5.50;;;;;;;20.17;50.68;97097.00;1878701;76;25563;-88
2022/04/02 00:43:59;;;;;;;8.10;5.58;;;;;;;20.17;50.65;97106.14;1878332;76;27468;-88
2022/04/02 00:46:26;;;;;;;9.58;5.58;;;;;;;20.18;50.65;97105.55;1878705;76;25646;-89
2022/04/02 00:48:52;;;;;;;7.40;5.37;;;;;;;20.19;50.64;97105.72;1878785;76;25727;-88
2022/04/02 00:51:19;;;;;;;8.95;5.67;;;;;;;20.21;50.64;97099.75;1878759;76;25458;-88
2022/04/02 00:53:49;;;;;;;8.03;5.45;;;;;;;20.20;50.63;97100.34;1878765;76;25685;-88
2022/04/02 00:56:16;;;;;;;8.80;5.83;;;;;;;20.20;50.63;97098.95;1878857;76;28951;-88
2022/04/02 00:58:44;;;;;;;8.45;5.40;;;;;;;20.20;50.66;97094.78;1878975;76;25645;-90
2022/04/02 01:01:10;;;;;;;8.68;5.53;;;;;;;20.20;50.66;97092.00;1878671;76;25724;-89
2022/04/02 01:03:36;;;;;;;8.83;5.42;;;;;;;20.22;50.67;97097.14;1878493;76;25456;-89
2022/04/02 01:06:04;;;;;;;7.92;5.40;;;;;;;20.22;50.66;97096.55;1878715;76;25412;-90
2022/04/02 01:08:30;;;;;;;7.95;5.47;;;;;;;20.22;50.67;97092.97;1878649;76;27298;-91
2022/04/02 01:10:58;;;;;;;10.08;5.60;;;;;;;20.23;50.67;97095.95;1878647;76;25625;-90
2022/04/02 01:13:25;;;;;;;8.95;5.20;;;;;;;20.24;50.67;97092.76;1878443;76;25770;-89
2022/04/02 01:15:52;;;;;;;8.20;5.30;;;;;;;20.24;50.65;97094.15;1878407;76;26183;-89
2022/04/02 01:18:18;;;;;;;7.42;4.92;;;;;;;20.26;50.64;97092.34;1878780;76;25662;-88
2022/04/02 01:20:44;;;;;;;8.28;5.53;;;;;;;20.26;50.66;97093.11;1878673;76;27401;-88
2022/04/02 01:23:11;;;;;;;8.05;5.10;;;;;;;20.26;50.65;97091.72;1878344;76;25443;-89
2022/04/02 01:25:37;;;;;;;9.33;5.40;;;;;;;20.28;50.65;97099.05;1878690;76;25625;-88
2022/04/02 01:28:04;;;;;;;8.78;5.33;;;;;;;20.27;50.65;97089.73;1878746;76;25542;-88
2022/04/02 01:30:31;;;;;;;7.05;4.92;;;;;;;20.28;50.65;97088.52;1878819;76;25373;-90
2022/04/02 01:32:58;;;;;;;7.67;4.90;;;;;;;20.29;50.65;97090.08;1878666;76;27543;-90
2022/04/02 01:35:25;;;;;;;7.87;5.15;;;;;;;20.30;50.64;97094.46;1878622;76;25649;-91
2022/04/02 01:37:52;;;;;;;6.50;4.35;;;;;;;20.30;50.64;97093.07;1878302;76;25606;-90
2022/04/02 01:40:19;;;;;;;7.37;5.05;;;;;;;20.30;50.64;97091.06;1878563;76;25416;-90
2022/04/02 01:42:47;;;;;;;8.15;5.15;;;;;;;20.31;50.64;97096.03;1878669;76;25637;-89
2022/04/02 01:45:15;;;;;;;9.25;5.33;;;;;;;20.32;50.66;97096.20;1878745;76;28295;-90
2022/04/02 01:47:41;;;;;;;7.28;4.83;;;;;;;20.32;50.63;97100.38;1878240;76;25929;-90
2022/04/02 01:50:10;;;;;;;6.78;4.70;;;;;;;20.33;50.66;97100.58;1878583;76;25656;-90
2022/04/02 01:52:37;;;;;;;6.85;4.65;;;;;;;20.33;50.66;97103.36;1878253;76;25720;-90
2022/04/02 01:55:04;;;;;;;7.15;4.92;;;;;;;20.36;50.64;97110.08;1878778;76;25569;-91
2022/04/02 01:57:30;;;;;;;7.42;4.95;;;;;;;20.36;50.64;97108.69;1878645;76;27375;-91
2022/04/02 01:59:56;;;;;;;8.25;5.45;;;;;;;20.36;50.64;97115.64;1878649;76;25766;-90
2022/04/02 02:02:22;;;;;;;8.48;5.00;;;;;;;20.37;50.63;97124.16;1878652;76;25562;-91
2022/04/02 02:04:48;;;;;;;6.22;4.22;;;;;;;20.36;50.65;97121.20;1874910;76;26193;-90
2022/04/02 02:07:14;;;;;;;7.08;4.50;;;;;;;20.39;50.63;97128.71;1878545;76;25408;-89
2022/04/02 02:09:40;;;;;;;6.80;4.80;;;;;;;20.39;50.62;97125.34;1877430;76;27384;-89
2022/04/02 02:12:07;;;;;;;7.97;4.83;;;;;;;20.40;50.62;97130.28;1877844;76;25789;-88
2022/04/02 02:14:34;;;;;;;7.08;4.78;;;;;;;20.40;50.62;97139.42;1878963;76;25640;-89
2022/04/02 02:17:00;;;;;;;6.37;4.65;;;;;;;20.41;50.61;97141.61;1878864;76;25578;-90
2022/04/02 02:19:26;;;;;;;6.65;4.55;;;;;;;20.40;50.62;97140.81;1879366;76;25735;-90
2022/04/02 02:21:52;;;;;;;7.33;4.50;;;;;;;20.41;50.62;97138.83;1879244;76;27423;-90
2022/04/02 02:24:19;;;;;;;6.40;4.53;;;;;;;20.42;50.61;97143.18;1879288;76;25605;-90
2022/04/02 02:26:45;;;;;;;6.87;4.70;;;;;;;20.42;50.61;97137.02;1879258;76;25665;-90
2022/04/02 02:29:11;;;;;;;6.22;4.47;;;;;;;20.44;50.60;97139.39;1879248;76;26159;-90
2022/04/02 02:31:37;;;;;;;7.30;4.58;;;;;;;20.44;50.60;97138.77;1879402;76;25684;-90
2022/04/02 02:36:48;;;;;;;6.12;4.35;;;;;;;20.44;50.60;97131.04;1871994;76;25695;-89
2022/04/02 02:39:14;;;;;;;8.30;4.55;;;;;;;20.44;50.59;97131.81;1878827;76;25662;-88
2022/04/02 02:41:41;;;;;;;6.55;4.40;;;;;;;20.44;50.61;97133.83;1878955;76;25457;-88
2022/04/02 02:44:07;;;;;;;5.85;4.08;;;;;;;20.45;50.62;97132.61;1879389;76;25680;-88
2022/04/02 02:46:33;;;;;;;6.95;4.70;;;;;;;20.46;50.59;97132.02;1879196;76;28322;-88
2022/04/02 02:49:00;;;;;;;6.55;4.55;;;;;;;20.46;50.59;97135.56;1879019;76;25572;-89
2022/04/02 02:51:26;;;;;;;7.10;4.60;;;;;;;20.46;50.60;97135.56;1879440;76;25389;-88
2022/04/02 02:53:52;;;;;;;5.40;3.92;;;;;;;20.47;50.59;97136.36;1879321;76;25566;-89
2022/04/02 02:56:18;;;;;;;6.00;4.30;;;;;;;20.48;50.59;97139.32;1879202;76;25597;-91
2022/04/02 02:58:44;;;;;;;6.72;4.50;;;;;;;20.48;50.58;97143.50;1875969;76;28219;-89
2022/04/02 03:01:11;;;;;;;5.22;4.03;;;;;;;20.47;50.58;97134.97;1878762;76;25646;-88
2022/04/02 03:03:38;;;;;;;6.15;4.40;;;;;;;20.47;50.59;97144.12;1878901;76;25610;-90
2022/04/02 03:06:04;;;;;;;6.60;4.35;;;;;;;20.47;50.59;97134.38;1881648;76;25529;-88
2022/04/02 03:08:31;;;;;;;6.17;4.03;;;;;;;20.47;50.59;97137.75;1882035;76;25645;-88
2022/04/02 03:10:58;;;;;;;7.22;4.33;;;;;;;20.48;50.61;97139.32;1879520;76;28074;-89
2022/04/02 03:13:24;;;;;;;5.05;3.85;;;;;;;20.49;50.58;97140.30;1878197;76;26030;-88
2022/04/02 03:15:51;;;;;;;6.45;4.40;;;;;;;20.47;50.61;97130.20;1879937;76;25678;-88
2022/04/02 03:18:17;;;;;;;6.45;4.20;;;;;;;20.48;50.61;97130.38;1882689;76;25655;-89
2022/04/02 03:20:43;;;;;;;6.70;4.55;;;;;;;20.49;50.60;97133.96;1857671;76;25651;-90
2022/04/02 03:23:10;;;;;;;6.97;4.15;;;;;;;20.49;50.60;97134.73;1845733;77;27365;-89
2022/04/02 03:25:36;;;;;;;6.87;4.50;;;;;;;20.50;50.56;97136.92;1838924;77;25717;-89
2022/04/02 03:28:04;;;;;;;6.47;4.22;;;;;;;20.51;50.52;97139.88;1827859;76;25730;-91
2022/04/02 03:30:30;;;;;;;5.67;4.50;;;;;;;20.50;50.51;97134.94;1863228;76;26671;-91
2022/04/02 03:32:56;;;;;;;6.65;4.40;;;;;;;20.52;50.48;97138.06;1864319;77;25395;-90
2022/04/02 03:35:23;;;;;;;7.08;4.15;;;;;;;20.51;50.47;97139.28;1864278;76;27282;-90
2022/04/02 03:37:51;;;;;;;6.30;4.17;;;;;;;20.51;50.46;97133.72;1864113;76;25789;-90
2022/04/02 03:40:22;;;;;;;6.37;4.00;;;;;;;20.51;50.42;97137.89;1863883;77;25440;-90
2022/04/02 03:42:49;;;;;;;5.47;4.08;;;;;;;20.51;50.45;97135.11;1864358;77;26024;-90
2022/04/02 03:45:18;;;;;;;6.33;4.50;;;;;;;20.53;50.46;97134.69;1864206;77;25589;-90
2022/04/02 03:47:46;;;;;;;6.12;4.20;;;;;;;20.52;50.46;97137.30;1864223;76;28196;-90
2022/04/02 03:50:12;;;;;;;5.75;4.22;;;;;;;20.51;50.47;97146.83;1864138;76;25641;-90
2022/04/02 03:52:39;;;;;;;6.17;3.90;;;;;;;20.50;50.51;97141.89;1864198;77;25380;-91
2022/04/02 03:55:06;;;;;;;7.33;4.20;;;;;;;20.49;50.51;97151.42;1860795;77;25550;-91
2022/04/02 03:57:34;;;;;;;7.00;4.12;;;;;;;20.50;50.54;97143.87;1864218;77;25384;-90
2022/04/02 04:00:01;;;;;;;6.20;4.30;;;;;;;20.50;50.54;97155.00;1863829;76;28309;-89
2022/04/02 04:02:27;;;;;;;5.10;3.70;;;;;;;20.50;50.55;97147.45;1864202;77;25585;-89
2022/04/02 04:04:53;;;;;;;5.03;3.85;;;;;;;20.51;50.55;97151.00;1861255;75;25456;-89
2022/04/02 04:07:19;;;;;;;5.53;3.98;;;;;;;20.49;50.57;97150.66;1855892;76;25470;-90
2022/04/02 04:09:45;;;;;;;6.45;4.25;;;;;;;20.49;50.57;97161.16;1855959;76;25618;-90
2022/04/02 04:12:13;;;;;;;5.60;3.87;;;;;;;20.50;50.59;97168.32;1856252;76;27578;-90
2022/04/02 04:14:39;;;;;;;5.03;3.72;;;;;;;20.49;50.60;97165.34;1855665;76;25617;-89
2022/04/02 04:17:05;;;;;;;5.60;4.03;;;;;;;20.51;50.60;97171.88;1856073;76;25696;-89
2022/04/02 04:19:34;;;;;;;5.87;3.83;;;;;;;20.51;50.59;97175.45;1856165;76;25614;-88
2022/04/02 04:22:02;;;;;;;4.83;3.85;;;;;;;20.52;50.58;97170.06;1855828;77;25747;-89
2022/04/02 04:24:30;;;;;;;5.67;3.72;;;;;;;20.52;50.58;97172.84;1855894;76;26987;-89
2022/04/02 04:26:56;;;;;;;6.33;4.00;;;;;;;20.52;50.58;97176.25;1855790;76;25617;-89
2022/04/02 04:29:22;;;;;;;5.72;3.85;;;;;;;20.51;50.59;97176.05;1855615;76;25653;-89
2022/04/02 04:31:48;;;;;;;5.75;4.05;;;;;;;20.51;50.60;97181.02;1856161;77;25441;-89
2022/04/02 04:34:17;;;;;;;5.50;3.98;;;;;;;20.51;50.59;97180.22;1856100;76;25759;-89
2022/04/02 04:36:42;;;;;;;6.35;3.70;;;;;;;20.51;50.58;97183.00;1855863;76;26096;-89
2022/04/02 04:39:08;;;;;;;5.83;4.05;;;;;;;20.50;50.59;97179.45;1844096;77;25737;-88
2022/04/02 04:41:37;;;;;;;5.60;4.10;;;;;;;20.50;50.61;97183.63;1856198;76;25645;-94
2022/04/02 04:44:02;;;;;;;6.08;4.00;;;;;;;20.50;50.60;97187.80;1855617;76;25444;-89
2022/04/02 04:46:28;;;;;;;6.65;4.12;;;;;;;20.50;50.60;97187.80;1856052;77;25381;-89
2022/04/02 04:48:54;;;;;;;6.97;4.55;;;;;;;20.50;50.62;97191.98;1855748;77;27383;-88
2022/04/02 04:51:23;;;;;;;9.50;4.37;;;;;;;20.50;50.60;97191.17;1852620;76;25696;-88
2022/04/02 04:53:49;;;;;;;7.03;4.90;;;;;;;20.50;50.63;97192.56;1855715;76;25648;-91
2022/04/02 04:56:14;;;;;;;7.65;4.83;;;;;;;20.49;50.58;97197.33;1855992;76;25586;-91
2022/04/02 04:58:40;;;;;;;11.03;5.37;;;;;;;20.50;50.60;97196.15;1856111;77;25443;-91
2022/04/02 05:01:08;;;;;;;10.00;5.80;;;;;;;20.51;50.52;97198.31;1856197;76;27537;-90
2022/04/02 05:03:35;;;;;;;11.00;6.00;;;;;;;20.50;50.57;97200.91;1855641;77;25634;-90
2022/04/02 05:06:02;;;;;;;8.65;5.17;;;;;;;20.49;50.57;97200.73;1855692;75;25761;-90
2022/04/02 05:08:32;;;;;;;9.75;5.97;;;;;;;20.50;50.55;97205.09;1856008;76;25536;-90
2022/04/02 05:10:59;;;;;;;9.33;5.50;;;;;;;20.49;50.54;97202.90;1856104;76;25448;-90
2022/04/02 05:13:26;;;;;;;9.70;6.00;;;;;;;20.49;50.51;97206.30;1855741;76;27538;-91
2022/04/02 05:15:52;;;;;;;8.48;5.45;;;;;;;20.49;50.53;97207.07;1855914;76;25468;-90
2022/04/02 05:18:18;;;;;;;10.78;5.78;;;;;;;20.48;50.51;97203.31;1856135;77;25593;-90
2022/04/02 05:20:44;;;;;;;10.63;6.17;;;;;;;20.47;50.51;97207.31;1856284;77;25556;-90
2022/04/02 05:23:11;;;;;;;9.30;5.72;;;;;;;20.47;50.52;97205.33;1855953;77;25408;-89
2022/04/02 05:25:38;;;;;;;10.68;5.75;;;;;;;20.47;50.54;97201.16;1855852;76;28211;-89
2022/04/02 05:28:06;;;;;;;9.43;5.75;;;;;;;20.47;50.54;97204.53;1855765;77;25424;-89
2022/04/02 05:30:37;;;;;;;10.03;5.87;;;;;;;20.46;50.55;97206.52;1856314;76;25582;-89
2022/04/02 05:33:04;;;;;;;10.55;6.03;;;;;;;20.44;50.56;97204.15;1855836;77;25591;-89
2022/04/02 05:35:31;;;;;;;10.28;6.15;;;;;;;20.46;50.58;97209.91;1844291;77;25672;-89
2022/04/02 05:37:57;;;;;;;10.25;5.62;;;;;;;20.44;50.60;97204.15;1856355;77;27996;-89
2022/04/02 05:40:24;;;;;;;9.90;5.80;;;;;;;20.45;50.58;97213.29;1856083;77;25730;-90
2022/04/02 05:42:50;;;;;;;9.73;6.08;;;;;;;20.43;50.62;97215.09;1855857;77;25594;-89
2022/04/02 05:45:17;;;;;;;9.83;6.03;;;;;;;20.43;50.65;97214.30;1856325;77;26087;-90
2022/04/02 05:47:52;;;;;;;8.93;5.70;;;;;;;20.42;50.66;97212.73;1856191;77;25396;-89
2022/04/02 05:50:21;;;;;;;10.55;6.47;;;;;;;20.42;50.65;97213.53;1856160;76;27399;-90
2022/04/02 05:52:49;;;;;;;10.72;6.00;;;;;;;20.42;50.67;97219.09;1856223;76;25666;-90
2022/04/02 05:55:17;;;;;;;8.83;5.80;;;;;;;20.41;50.69;97218.13;1855851;76;25474;-90
2022/04/02 05:57:45;;;;;;;9.30;5.50;;;;;;;20.40;50.71;97226.26;1855777;77;25557;-90
2022/04/02 06:00:15;;;;;;;9.95;6.20;;;;;;;20.39;50.72;97223.30;1856235;76;25716;-90
2022/04/02 06:02:43;;;;;;;9.70;6.40;;;;;;;20.39;50.75;97226.88;1856529;76;27324;-90
2022/04/02 06:05:13;;;;;;;10.38;6.05;;;;;;;20.39;50.76;97231.05;1855953;75;25841;-90
2022/04/02 06:07:41;;;;;;;9.85;5.90;;;;;;;20.37;50.79;97227.89;1856310;76;25357;-89
2022/04/02 06:10:09;;;;;;;9.85;6.08;;;;;;;20.37;50.79;97229.28;1855814;76;26230;-90
2022/04/02 06:12:35;;;;;;;11.43;6.55;;;;;;;20.37;50.81;97232.06;1856177;77;25677;-90
2022/04/02 06:15:02;;;;;;;9.35;5.90;;;;;;;20.37;50.84;97232.65;1856271;77;26857;-90
2022/04/02 06:17:29;;;;;;;10.03;6.17;;;;;;;20.36;50.83;97229.10;1856166;77;25458;-90
2022/04/02 06:19:55;;;;;;;10.18;6.17;;;;;;;20.35;50.85;97228.89;1856256;77;25534;-89
2022/04/02 06:22:21;;;;;;;10.30;6.05;;;;;;;20.36;50.87;97235.25;1856107;77;25435;-90
2022/04/02 06:24:48;;;;;;;9.23;6.17;;;;;;;20.36;50.87;97230.49;1856385;77;25407;-90
2022/04/02 06:27:14;;;;;;;9.50;5.80;;;;;;;20.35;50.90;97230.91;1856357;77;27328;-90
2022/04/02 06:29:40;;;;;;;9.70;6.08;;;;;;;20.34;50.90;97235.67;1856008;77;25701;-90
2022/04/02 06:32:08;;;;;;;9.45;6.08;;;;;;;20.35;50.91;97237.86;1856295;77;25440;-90
2022/04/02 06:34:34;;;;;;;11.22;6.17;;;;;;;20.35;50.93;97242.03;1856169;77;26299;-90
2022/04/02 06:37:01;;;;;;;9.05;5.60;;;;;;;20.33;50.95;97236.88;1856213;76;25648;-89
2022/04/02 06:39:27;;;;;;;10.20;6.47;;;;;;;20.34;50.96;97249.58;1856001;77;27316;-90
2022/04/02 06:41:53;;;;;;;9.18;6.22;;;;;;;20.33;50.93;97246.62;1855982;76;25415;-89
2022/04/02 06:44:20;;;;;;;9.60;6.10;;;;;;;20.33;50.98;97248.02;1855881;76;25432;-90
2022/04/02 06:46:46;;;;;;;9.50;5.80;;;;;;;20.34;50.96;97245.41;1856210;77;26151;-89
2022/04/02 06:49:13;;;;;;;9.73;5.97;;;;;;;20.31;50.99;97242.86;1856052;77;25705;-89
2022/04/02 06:51:39;;;;;;;10.10;6.65;;;;;;;20.31;51.01;97246.23;1856199;76;27375;-90
2022/04/02 06:54:06;;;;;;;8.70;6.05;;;;;;;20.31;51.05;97247.63;1856067;77;25650;-89
2022/04/02 06:56:32;;;;;;;9.38;6.20;;;;;;;20.30;51.06;97253.02;1855822;76;25636;-89
2022/04/02 06:58:59;;;;;;;11.15;6.65;;;;;;;20.28;51.04;97253.42;1856235;77;26079;-89
2022/04/02 07:01:25;;;;;;;10.08;6.78;;;;;;;20.29;51.00;97256.38;1856148;77;26019;-90
2022/04/02 07:03:53;;;;;;;10.75;7.00;;;;;;;20.30;50.99;97251.00;1856072;76;27278;-89
2022/04/02 07:06:19;;;;;;;12.25;6.75;;;;;;;20.30;50.99;97249.61;1855790;75;25655;-91
2022/04/02 07:08:46;;;;;;;11.28;7.15;;;;;;;20.31;51.01;97264.31;1856252;77;25611;-90
2022/04/02 07:11:13;;;;;;;13.13;7.40;;;;;;;20.31;51.05;97263.72;1856214;76;25629;-88
2022/04/02 07:13:40;;;;;;;10.95;7.50;;;;;;;20.33;51.11;97261.12;1856014;76;25360;-88
2022/04/02 07:16:06;;;;;;;12.28;7.05;;;;;;;20.34;51.14;97266.86;1856131;76;27317;-90
2022/04/02 07:18:35;;;;;;;12.30;7.10;;;;;;;20.33;51.14;97268.88;1856081;76;25712;-93
2022/04/02 07:21:02;;;;;;;12.88;7.62;;;;;;;20.34;51.22;97277.98;1856156;77;25432;-91
2022/04/02 07:23:30;;;;;;;11.50;7.62;;;;;;;20.35;51.28;97280.98;1855854;76;25418;-92
2022/04/02 07:25:57;;;;;;;12.13;7.20;;;;;;;20.36;51.33;97280.56;1856202;76;25538;-89
2022/04/02 07:28:25;;;;;;;12.43;7.28;;;;;;;20.35;51.31;97280.98;1856200;76;27299;-90
2022/04/02 07:30:51;;;;;;;12.68;7.20;;;;;;;20.35;51.33;97280.98;1855614;76;25776;-90
2022/04/02 07:33:18;;;;;;;12.58;7.42;;;;;;;20.32;51.29;97278.41;1856265;76;25668;-90
2022/04/02 07:36:08;;;;;;;13.80;7.97;;;;;;;20.31;51.27;97282.40;1856141;76;26165;-89
2022/04/02 07:38:52;;;;;;;11.50;7.28;;;;;;;20.30;51.24;97284.38;1856160;76;25412;-89
2022/04/02 07:41:23;;;;;;;13.25;7.72;;;;;;;20.28;51.25;97286.80;1855449;76;27447;-92
2022/04/02 07:44:24;;;;;;;11.05;7.25;;;;;;;20.28;51.24;97288.20;1852701;76;25857;-92
2022/04/02 07:46:52;;;;;;;;;;;;;;;20.28;51.24;97288.20;1858952;76;25445;-91
2022/04/02 07:49:23;;;;;;;12.75;7.50;;;;;;;20.27;51.22;97292.78;1856058;76;25411;-92
2022/04/02 07:51:55;;;;;;;14.87;7.75;;;;;;;20.25;51.21;97293.78;1856202;76;25605;-90
2022/04/02 07:54:30;;;;;;;11.40;7.53;;;;;;;20.25;51.17;97292.39;1856318;76;28284;-93
2022/04/02 07:57:01;;;;;;;14.85;7.45;;;;;;;20.25;51.11;97294.58;1844220;77;25776;-92
2022/04/02 07:59:36;;;;;;;11.25;7.10;;;;;;;20.25;51.13;97301.53;1856266;76;25601;-92
2022/04/02 08:02:04;;;;;;;13.70;8.40;;;;;;;20.27;51.09;97306.06;1855107;76;27171;-93
2022/04/02 08:04:31;;;;;;;13.83;7.92;;;;;;;20.29;51.10;97308.44;1856097;76;25574;-93
2022/04/02 08:06:58;;;;;;;14.90;8.30;;;;;;;20.28;51.09;97306.27;1855866;76;27482;-90
2022/04/02 08:09:26;;;;;;;12.28;7.58;;;;;;;20.28;51.11;97316.60;1856072;76;25447;-90
2022/04/02 08:11:54;;;;;;;14.25;8.00;;;;;;;20.28;51.10;97308.25;1856163;76;25562;-92
2022/04/02 08:14:22;;;;;;;13.05;7.90;;;;;;;20.28;51.10;97312.43;1855979;76;25551;-90
2022/04/02 08:16:50;;;;;;;12.33;8.05;;;;;;;20.26;51.11;97321.19;1855161;76;26283;-92
2022/04/02 08:19:21;;;;;;;14.55;8.35;;;;;;;20.26;51.13;97323.20;1855909;76;27390;-90
2022/04/02 08:21:47;;;;;;;13.62;8.03;;;;;;;20.25;51.15;97323.78;1855667;76;25807;-90
2022/04/02 08:24:14;;;;;;;12.70;7.15;;;;;;;20.24;51.19;97322.22;1856139;76;25447;-91
2022/04/02 08:27:04;;;;;;;11.85;7.67;;;;;;;20.23;51.18;97326.18;1856163;76;25550;-92
2022/04/02 08:29:47;;;;;;;13.20;7.58;;;;;;;20.22;51.20;97322.42;1856535;76;25548;-90
2022/04/02 08:33:02;;;;;;;12.75;8.25;;;;;;;20.21;51.20;97335.55;1780405;80;27544;-90
2022/04/02 08:35:54;;;;;;;12.60;7.62;;;;;;;20.21;51.23;97334.16;1780128;80;25629;-91
2022/04/02 08:38:29;;;;;;;13.98;8.33;;;;;;;20.20;51.24;97335.97;1780419;80;25728;-92
2022/04/02 08:41:26;;;;;;;13.13;7.58;;;;;;;20.18;51.23;97339.93;1780511;80;26215;-93
2022/04/02 08:44:41;;;;;;;13.13;7.72;;;;;;;20.19;51.24;97342.13;1779425;80;25560;-92
2022/04/02 08:48:01;;;;;;;15.40;8.53;;;;;;;20.19;51.22;97343.52;1780487;80;27365;-92
2022/04/02 08:50:36;;;;;;;10.98;7.30;;;;;;;20.18;51.19;97337.77;1717308;83;33174;-92
2022/04/02 08:53:51;;;;;;;13.30;8.18;;;;;;;20.17;51.22;97344.52;1716456;83;25784;-95
2022/04/02 08:56:22;;;;;;;11.70;7.83;;;;;;;20.17;51.21;97343.13;1718216;83;25578;-92
2022/04/02 08:59:05;;;;;;;15.15;8.73;;;;;;;20.16;51.21;97346.52;1717513;83;25753;-94
2022/04/02 09:01:45;;;;;;;14.23;8.28;;;;;;;20.17;51.19;97350.88;1718188;83;27442;-94
2022/04/02 09:05:06;;;;;;;14.18;8.08;;;;;;;20.17;51.19;97356.44;1703942;83;25310;-95
2022/04/02 09:07:50;;;;;;;13.40;7.85;;;;;;;20.17;51.16;97359.22;1717998;83;25444;-94
2022/04/02 09:11:05;;;;;;;13.40;7.60;;;;;;;20.16;51.15;97352.67;1760607;80;25561;-93
2022/04/02 09:13:57;;;;;;;13.62;8.28;;;;;;;20.16;51.15;97358.23;1775655;80;25733;-95
2022/04/02 09:16:47;;;;;;;12.80;7.58;;;;;;;20.14;51.13;97359.23;1776739;80;27393;-94
2022/04/02 09:19:24;;;;;;;14.13;8.33;;;;;;;20.14;51.13;97359.23;1777052;80;25508;-94
2022/04/02 09:22:27;;;;;;;13.50;8.00;;;;;;;20.13;51.12;97368.20;1830787;76;25484;-94
2022/04/02 09:25:16;;;;;;;12.45;7.90;;;;;;;20.13;51.11;97362.64;1848891;77;25686;-92
2022/04/02 09:28:06;;;;;;;13.08;8.20;;;;;;;20.13;51.12;97372.37;1850194;77;25398;-94
2022/04/02 09:30:57;;;;;;;14.20;8.48;;;;;;;20.11;51.13;97371.98;1849930;77;28167;-92
2022/04/02 09:33:45;;;;;;;13.80;8.18;;;;;;;20.12;51.14;97375.56;1849752;77;25672;-92
2022/04/02 09:36:31;;;;;;;12.45;7.75;;;;;;;20.11;51.12;97380.91;1849719;77;25773;-92
2022/04/02 09:39:11;;;;;;;12.90;7.95;;;;;;;20.09;51.13;97377.77;1849671;77;25715;-91
2022/04/02 09:42:15;;;;;;;14.10;7.95;;;;;;;20.09;51.07;97377.16;1849828;76;25703;-92
2022/04/02 09:44:59;;;;;;;13.08;8.48;;;;;;;20.09;51.03;97379.16;1849797;77;27446;-90
2022/04/02 09:48:10;;;;;;;16.10;8.78;;;;;;;20.09;50.98;97376.38;1788053;80;25672;-91
2022/04/02 09:50:37;;;;;;;12.60;8.25;;;;;;;20.08;50.91;97378.95;1788563;80;25473;-90
2022/04/02 09:53:29;;;;;;;12.43;8.50;;;;;;;20.07;50.86;97383.73;1788460;80;25866;-90
2022/04/02 09:56:13;;;;;;;13.53;8.30;;;;;;;20.06;50.86;97378.77;1788800;80;25668;-89
2022/04/02 09:59:05;;;;;;;13.80;7.92;;;;;;;20.06;50.79;97382.14;1784546;80;27408;-90
2022/04/02 10:01:53;;;;;;;14.28;8.38;;;;;;;20.06;50.78;97388.50;1788687;80;25783;-90
2022/04/02 10:04:43;;;;;;;13.22;7.80;;;;;;;20.05;50.83;97387.52;1788560;80;25463;-91
2022/04/02 10:07:48;;;;;;;14.75;8.33;;;;;;;20.02;50.89;97382.78;1760467;80;25604;-93
2022/04/02 10:10:16;;;;;;;13.78;8.38;;;;;;;20.01;50.91;97382.56;1784746;80;25579;-92
2022/04/02 10:12:47;;;;;;;13.62;8.43;;;;;;;19.99;50.97;97381.58;1785624;80;27347;-90
2022/04/02 10:15:16;;;;;;;13.85;8.58;;;;;;;19.98;50.98;97388.35;1785156;80;25743;-89
2022/04/02 10:17:50;;;;;;;14.65;8.60;;;;;;;19.98;50.99;97389.74;1784029;79;25783;-92
2022/04/02 10:20:28;;;;;;;14.07;8.90;;;;;;;19.98;51.01;97392.52;1785231;80;25764;-90
2022/04/02 10:22:55;;;;;;;12.07;8.23;;;;;;;19.97;51.00;97393.70;1784373;80;25660;-89
2022/04/02 10:25:26;;;;;;;13.13;8.15;;;;;;;19.98;51.01;97401.45;1828386;77;27434;-90
2022/04/02 10:27:55;;;;;;;13.30;7.90;;;;;;;19.97;51.04;97404.83;1848970;77;25649;-91
2022/04/02 10:30:25;;;;;;;13.20;8.38;;;;;;;19.99;51.05;97409.98;1822666;77;25462;-92
2022/04/02 10:35:48;;;;;;;11.33;7.70;;;;;;;19.98;51.03;97410.59;1848929;77;25589;-92
2022/04/02 10:38:37;;;;;;;;;;;;;;;19.99;51.01;97408.59;1851694;77;27459;-89
2022/04/02 10:41:16;;;;;;;12.25;7.40;;;;;;;19.98;51.01;97409.20;1849308;77;25652;-90
2022/04/02 10:44:06;;;;;;;13.55;8.20;;;;;;;19.98;51.02;97415.36;1848744;77;25622;-93
2022/04/02 10:46:33;;;;;;;12.00;7.73;;;;;;;19.98;51.00;97415.36;1849130;77;26092;-92
2022/04/02 10:49:05;;;;;;;14.60;8.53;;;;;;;19.96;50.96;97415.77;1849146;77;25445;-92
2022/04/02 10:51:34;;;;;;;13.35;8.70;;;;;;;19.98;50.95;97416.16;1850598;75;26469;-89
2022/04/02 10:54:13;;;;;;;14.23;8.88;;;;;;;19.98;50.94;97418.94;1856640;77;25665;-94
2022/04/02 10:56:46;;;;;;;13.35;8.13;;;;;;;19.98;50.90;97417.55;1822648;77;25683;-92
2022/04/02 10:59:16;;;;;;;13.13;8.45;;;;;;;19.98;50.87;97422.31;1822973;78;25451;-89
2022/04/02 11:01:46;;;;;;;14.40;8.15;;;;;;;19.98;50.84;97422.31;1823813;78;25596;-94
2022/04/02 11:04:49;;;;;;;14.47;8.43;;;;;;;19.98;50.75;97420.91;1823162;78;27531;-92
2022/04/02 11:07:30;;;;;;;12.95;7.92;;;;;;;19.98;50.73;97422.31;1817667;78;25307;-93
2022/04/02 11:10:01;;;;;;;13.40;7.80;;;;;;;19.97;50.73;97424.91;1812470;79;25729;-90
2022/04/02 11:12:38;;;;;;;12.68;8.15;;;;;;;19.98;50.71;97430.06;1812353;79;25386;-92
2022/04/02 11:15:19;;;;;;;12.05;7.92;;;;;;;19.97;50.61;97437.42;1811702;78;25611;-92
2022/04/02 11:17:48;;;;;;;12.82;8.45;;;;;;;19.97;50.64;97438.81;1812326;79;27425;-93
2022/04/02 11:20:21;;;;;;;13.05;7.95;;;;;;;19.97;50.62;97440.97;1812368;79;25730;-91
2022/04/02 11:22:57;;;;;;;14.20;8.55;;;;;;;19.96;50.59;97444.95;1812680;79;25639;-90
2022/04/02 11:25:28;;;;;;;12.47;7.90;;;;;;;19.99;50.50;97448.31;1812252;79;26075;-92
2022/04/02 11:27:58;;;;;;;12.85;8.25;;;;;;;19.98;50.48;97442.57;1812534;79;25572;-91
2022/04/02 11:30:31;;;;;;;13.88;8.25;;;;;;;20.00;50.45;97454.05;1812579;79;28235;-92
2022/04/02 11:33:11;;;;;;;13.65;8.33;;;;;;;20.00;50.44;97454.67;1812397;79;25725;-91
2022/04/02 11:35:51;;;;;;;13.15;8.10;;;;;;;20.01;50.35;97453.47;1811721;78;25429;-91
2022/04/02 11:38:37;;;;;;;12.65;7.97;;;;;;;20.01;50.33;97455.66;1812478;79;26226;-92
2022/04/02 11:41:27;;;;;;;12.25;8.05;;;;;;;20.01;50.22;97450.69;1812581;79;25637;-91
2022/04/02 11:44:08;;;;;;;12.63;8.23;;;;;;;20.00;50.22;97457.45;1812195;79;29990;-92
2022/04/02 11:46:54;;;;;;;;;;;;;;;19.99;50.20;97454.47;1814109;79;25457;-91
2022/04/02 11:49:33;;;;;;;12.23;8.30;;;;;;;19.98;50.12;97455.67;1812415;79;25793;-93
2022/04/02 11:52:09;;;;;;;13.22;8.20;;;;;;;19.97;50.12;97463.83;1812174;79;25531;-92
2022/04/02 11:54:53;;;;;;;14.33;7.97;;;;;;;19.97;50.13;97460.43;1812503;79;25695;-92
2022/04/02 11:57:20;;;;;;;13.25;7.90;;;;;;;19.96;50.13;97460.84;1811724;79;27273;-93